UAE52 EDDM-OMDB
Flight info
| Callsign | UAE52 |
|---|---|
| Flight time | N/A |
| Altitude | 33000 |
| Route | VAVOR3E/08R VAVOR M867 RADIZ DCT GIMIX/N0490F370 DCT EPODO DCT DABAR DCT SIRMI DCT REMPI DCT TIKSA DCT VAKSU DCT RODON DCT DIMIS DCT IPTES UL604 SALUN N705 MMA/N0485F390 P751 DASUM Y234 FYM M872 BDB Y214 RAPMA DCT KUVSO DCT KATIT DCT PEKEM M628 RIGIL G783 ELUDA/N0475F350 G783 ASPED Q308 KIPOK Q568 IMPED |
| Aircraft | A388/J-SADE2E3FGHIJ3J4J5M1RWXY/LB1D1 |
Departure
| Time | 2026-04-30 19:08 |
|---|---|
| Airport | Munich Airport (EDDM) |
Arrival
| Time | N/A |
|---|---|
| Airport | Dubai International Airport (OMDB) |
| Time | Latitude | Longitude | Altitude | Speed | Heading |
|---|---|---|---|---|---|
| 2026-04-30 18:35 | 48.35881 | 11.79249 | 1472 ft | 0 kts | 263° |
| 2026-04-30 18:46 | 48.35882 | 11.79259 | 1463 ft | 2 kts | 263° |
| 2026-04-30 18:46 | 48.35884 | 11.79285 | 1466 ft | 3 kts | 263° |
| 2026-04-30 18:47 | 48.35886 | 11.79313 | 1462 ft | 3 kts | 261° |
| 2026-04-30 18:47 | 48.35891 | 11.79339 | 1460 ft | 3 kts | 248° |
| 2026-04-30 18:47 | 48.35907 | 11.79362 | 1460 ft | 3 kts | 210° |
| 2026-04-30 18:47 | 48.35930 | 11.79371 | 1460 ft | 3 kts | 189° |
| 2026-04-30 18:48 | 48.35940 | 11.79373 | 1460 ft | 0 kts | 187° |
| 2026-04-30 18:50 | 48.35937 | 11.79372 | 1460 ft | 2 kts | 187° |
| 2026-04-30 18:51 | 48.35908 | 11.79367 | 1460 ft | 5 kts | 185° |
| 2026-04-30 18:51 | 48.35882 | 11.79367 | 1460 ft | 2 kts | 174° |
| 2026-04-30 18:51 | 48.35878 | 11.79368 | 1460 ft | 0 kts | 174° |
| 2026-04-30 18:51 | 48.35870 | 11.79369 | 1464 ft | 3 kts | 171° |
| 2026-04-30 18:52 | 48.35835 | 11.79382 | 1468 ft | 7 kts | 164° |
| 2026-04-30 18:52 | 48.35783 | 11.79397 | 1466 ft | 9 kts | 173° |
| 2026-04-30 18:52 | 48.35716 | 11.79408 | 1461 ft | 9 kts | 174° |
| 2026-04-30 18:52 | 48.35645 | 11.79420 | 1460 ft | 11 kts | 174° |
| 2026-04-30 18:53 | 48.35562 | 11.79433 | 1465 ft | 13 kts | 173° |
| 2026-04-30 18:53 | 48.35483 | 11.79476 | 1462 ft | 10 kts | 140° |
| 2026-04-30 18:53 | 48.35445 | 11.79532 | 1460 ft | 7 kts | 134° |
| 2026-04-30 18:53 | 48.35403 | 11.79583 | 1470 ft | 8 kts | 156° |
| 2026-04-30 18:54 | 48.35360 | 11.79605 | 1460 ft | 0 kts | 169° |
| 2026-04-30 18:54 | 48.35351 | 11.79607 | 1462 ft | 4 kts | 171° |
| 2026-04-30 18:54 | 48.35313 | 11.79614 | 1469 ft | 7 kts | 175° |
| 2026-04-30 18:54 | 48.35298 | 11.79616 | 1462 ft | 0 kts | 174° |
| 2026-04-30 18:55 | 48.35294 | 11.79616 | 1462 ft | 2 kts | 189° |
| 2026-04-30 18:56 | 48.35205 | 11.79542 | 1460 ft | 14 kts | 205° |
| 2026-04-30 18:56 | 48.35113 | 11.79517 | 1467 ft | 12 kts | 176° |
| 2026-04-30 18:56 | 48.35054 | 11.79524 | 1470 ft | 0 kts | 173° |
| 2026-04-30 18:57 | 48.35046 | 11.79526 | 1468 ft | 4 kts | 174° |
| 2026-04-30 18:57 | 48.34989 | 11.79534 | 1466 ft | 11 kts | 174° |
| 2026-04-30 18:57 | 48.34947 | 11.79541 | 1466 ft | 3 kts | 173° |
| 2026-04-30 18:58 | 48.34900 | 11.79550 | 1464 ft | 0 kts | 172° |
| 2026-04-30 18:58 | 48.34880 | 11.79554 | 1467 ft | 10 kts | 174° |
| 2026-04-30 18:58 | 48.34790 | 11.79494 | 1461 ft | 16 kts | 248° |
| 2026-04-30 18:59 | 48.34762 | 11.79210 | 1466 ft | 7 kts | 262° |
| 2026-04-30 19:00 | 48.34752 | 11.79105 | 1472 ft | 4 kts | 262° |
| 2026-04-30 19:00 | 48.34747 | 11.79044 | 1468 ft | 8 kts | 263° |
| 2026-04-30 19:00 | 48.34728 | 11.78804 | 1469 ft | 14 kts | 263° |
| 2026-04-30 19:01 | 48.34705 | 11.78473 | 1470 ft | 16 kts | 263° |
| 2026-04-30 19:01 | 48.34691 | 11.78295 | 1468 ft | 19 kts | 263° |
| 2026-04-30 19:02 | 48.34656 | 11.77856 | 1468 ft | 22 kts | 263° |
| 2026-04-30 19:02 | 48.34628 | 11.77509 | 1464 ft | 11 kts | 263° |
| 2026-04-30 19:03 | 48.34610 | 11.77286 | 1463 ft | 9 kts | 263° |
| 2026-04-30 19:03 | 48.34600 | 11.77155 | 1471 ft | 11 kts | 263° |
| 2026-04-30 19:04 | 48.34578 | 11.76877 | 1462 ft | 14 kts | 264° |
| 2026-04-30 19:04 | 48.34554 | 11.76520 | 1464 ft | 20 kts | 264° |
| 2026-04-30 19:05 | 48.34523 | 11.76085 | 1466 ft | 23 kts | 263° |
| 2026-04-30 19:05 | 48.34484 | 11.75605 | 1464 ft | 22 kts | 263° |
| 2026-04-30 19:06 | 48.34473 | 11.75451 | 1471 ft | 8 kts | 264° |
| 2026-04-30 19:06 | 48.34464 | 11.75323 | 1461 ft | 16 kts | 264° |
| 2026-04-30 19:06 | 48.34406 | 11.74951 | 1462 ft | 19 kts | 225° |
| 2026-04-30 19:07 | 48.34171 | 11.74997 | 1466 ft | 25 kts | 132° |
| 2026-04-30 19:07 | 48.34088 | 11.75296 | 1475 ft | 40 kts | 88° |
| 2026-04-30 19:08 | 48.34241 | 11.77287 | 1468 ft | 146 kts | 83° |
| 2026-04-30 19:08 | 48.34534 | 11.80563 | 2203 ft | 161 kts | 84° |
| 2026-04-30 19:08 | 48.34629 | 11.82210 | 2907 ft | 151 kts | 86° |
| 2026-04-30 19:09 | 48.34811 | 11.85428 | 3844 ft | 168 kts | 84° |
| 2026-04-30 19:09 | 48.34950 | 11.87269 | 3980 ft | 186 kts | 84° |
| 2026-04-30 19:09 | 48.35111 | 11.89267 | 4098 ft | 199 kts | 84° |
| 2026-04-30 19:10 | 48.35423 | 11.93740 | 5038 ft | 221 kts | 93° |
| 2026-04-30 19:10 | 48.33806 | 11.97681 | 6431 ft | 240 kts | 141° |
| 2026-04-30 19:11 | 48.32446 | 11.99208 | 7108 ft | 247 kts | 140° |
| 2026-04-30 19:11 | 48.29628 | 12.02219 | 7520 ft | 252 kts | 155° |
| 2026-04-30 19:11 | 48.27901 | 12.02746 | 7692 ft | 258 kts | 178° |
| 2026-04-30 19:12 | 48.26089 | 12.02599 | 7884 ft | 273 kts | 180° |
| 2026-04-30 19:12 | 48.24126 | 12.02465 | 8073 ft | 282 kts | 179° |
| 2026-04-30 19:12 | 48.22158 | 12.02349 | 8244 ft | 284 kts | 179° |
| 2026-04-30 19:13 | 48.18227 | 12.02547 | 8596 ft | 281 kts | 159° |
| 2026-04-30 19:13 | 48.14528 | 12.04504 | 8992 ft | 285 kts | 158° |
| 2026-04-30 19:13 | 48.12672 | 12.05486 | 9599 ft | 288 kts | 158° |
| 2026-04-30 19:14 | 48.10775 | 12.06478 | 10399 ft | 290 kts | 158° |
| 2026-04-30 19:14 | 48.08857 | 12.07476 | 11072 ft | 294 kts | 157° |
| 2026-04-30 19:14 | 48.06908 | 12.08488 | 11734 ft | 299 kts | 157° |
| 2026-04-30 19:14 | 48.04926 | 12.09516 | 12398 ft | 303 kts | 156° |
| 2026-04-30 19:15 | 48.02922 | 12.10553 | 13051 ft | 307 kts | 156° |
| 2026-04-30 19:15 | 47.98816 | 12.12676 | 14313 ft | 317 kts | 156° |
| 2026-04-30 19:15 | 47.96720 | 12.13757 | 14906 ft | 320 kts | 156° |
| 2026-04-30 19:16 | 47.94622 | 12.14887 | 15451 ft | 321 kts | 150° |
| 2026-04-30 19:16 | 47.92670 | 12.16472 | 16001 ft | 319 kts | 139° |
| 2026-04-30 19:16 | 47.89229 | 12.20746 | 16695 ft | 335 kts | 133° |
| 2026-04-30 19:17 | 47.87412 | 12.23054 | 16849 ft | 351 kts | 134° |
| 2026-04-30 19:17 | 47.83525 | 12.27927 | 17434 ft | 374 kts | 134° |
| 2026-04-30 19:17 | 47.81524 | 12.30420 | 17976 ft | 377 kts | 134° |
| 2026-04-30 19:18 | 47.78158 | 12.34618 | 18833 ft | 382 kts | 134° |
| 2026-04-30 19:18 | 47.75449 | 12.38000 | 19399 ft | 387 kts | 134° |
| 2026-04-30 19:18 | 47.73381 | 12.40582 | 19870 ft | 389 kts | 134° |
| 2026-04-30 19:19 | 47.71298 | 12.43178 | 20338 ft | 392 kts | 133° |
| 2026-04-30 19:19 | 47.69197 | 12.45783 | 20812 ft | 394 kts | 133° |
| 2026-04-30 19:19 | 47.64951 | 12.51011 | 21703 ft | 400 kts | 133° |
| 2026-04-30 19:20 | 47.62801 | 12.53651 | 22144 ft | 403 kts | 134° |
| 2026-04-30 19:20 | 47.60533 | 12.56173 | 22491 ft | 409 kts | 137° |
| 2026-04-30 19:20 | 47.55945 | 12.61155 | 23358 ft | 413 kts | 136° |
| 2026-04-30 19:21 | 47.53624 | 12.63687 | 23903 ft | 415 kts | 136° |
| 2026-04-30 19:21 | 47.48936 | 12.68789 | 24619 ft | 420 kts | 136° |
| 2026-04-30 19:22 | 47.44204 | 12.73924 | 25410 ft | 424 kts | 136° |
| 2026-04-30 19:22 | 47.37020 | 12.81705 | 26671 ft | 430 kts | 135° |
| 2026-04-30 19:23 | 47.29739 | 12.89557 | 27945 ft | 437 kts | 135° |
| 2026-04-30 19:24 | 47.24795 | 12.94890 | 28737 ft | 445 kts | 135° |
| 2026-04-30 19:24 | 47.22290 | 12.97582 | 29247 ft | 447 kts | 136° |
| 2026-04-30 19:24 | 47.17231 | 13.02992 | 30060 ft | 452 kts | 136° |
| 2026-04-30 19:25 | 47.09514 | 13.11225 | 31156 ft | 463 kts | 136° |
| 2026-04-30 19:26 | 47.04263 | 13.16823 | 31875 ft | 470 kts | 136° |
| 2026-04-30 19:26 | 46.98903 | 13.22520 | 32434 ft | 481 kts | 137° |
| 2026-04-30 19:26 | 46.96180 | 13.25403 | 32781 ft | 484 kts | 137° |
| 2026-04-30 19:27 | 46.90666 | 13.31229 | 33295 ft | 493 kts | 138° |
| 2026-04-30 19:27 | 46.85003 | 13.37212 | 33309 ft | 509 kts | 138° |
| 2026-04-30 19:28 | 46.82128 | 13.40238 | 33303 ft | 509 kts | 138° |
| 2026-04-30 19:29 | 46.70590 | 13.52342 | 33343 ft | 511 kts | 139° |
| 2026-04-30 19:30 | 46.59058 | 13.64379 | 33333 ft | 511 kts | 139° |
| 2026-04-30 19:30 | 46.53270 | 13.70402 | 33474 ft | 515 kts | 140° |
| 2026-04-30 19:31 | 46.47530 | 13.76601 | 34431 ft | 514 kts | 137° |
| 2026-04-30 19:31 | 46.44711 | 13.79797 | 34905 ft | 513 kts | 137° |
| 2026-04-30 19:31 | 46.39052 | 13.86166 | 35725 ft | 514 kts | 139° |
| 2026-04-30 19:32 | 46.36259 | 13.89280 | 36120 ft | 515 kts | 139° |
| 2026-04-30 19:32 | 46.33372 | 13.92483 | 36533 ft | 515 kts | 139° |
| 2026-04-30 19:32 | 46.30529 | 13.95634 | 36829 ft | 517 kts | 139° |
| 2026-04-30 19:32 | 46.27697 | 13.98768 | 37127 ft | 519 kts | 140° |
| 2026-04-30 19:33 | 46.24782 | 14.01990 | 37324 ft | 524 kts | 140° |
| 2026-04-30 19:33 | 46.21950 | 14.05111 | 37344 ft | 515 kts | 140° |
| 2026-04-30 19:33 | 46.16111 | 14.11098 | 37340 ft | 517 kts | 144° |
| 2026-04-30 19:34 | 46.10139 | 14.16858 | 37342 ft | 517 kts | 144° |
| 2026-04-30 19:35 | 46.01143 | 14.25539 | 37346 ft | 519 kts | 144° |
| 2026-04-30 19:35 | 45.95141 | 14.31311 | 37347 ft | 520 kts | 144° |
| 2026-04-30 19:36 | 45.89118 | 14.37087 | 37359 ft | 521 kts | 144° |
| 2026-04-30 19:36 | 45.80090 | 14.45794 | 37362 ft | 519 kts | 140° |
| 2026-04-30 19:37 | 45.74494 | 14.52313 | 37351 ft | 518 kts | 139° |
| 2026-04-30 19:37 | 45.68914 | 14.58823 | 37356 ft | 518 kts | 139° |
| 2026-04-30 19:38 | 45.63324 | 14.65325 | 37359 ft | 518 kts | 139° |
| 2026-04-30 19:38 | 45.57732 | 14.71811 | 37330 ft | 518 kts | 140° |
| 2026-04-30 19:39 | 45.52133 | 14.78281 | 37346 ft | 518 kts | 140° |
| 2026-04-30 19:39 | 45.46528 | 14.84736 | 37352 ft | 518 kts | 140° |
| 2026-04-30 19:40 | 45.40956 | 14.91137 | 37367 ft | 519 kts | 140° |
| 2026-04-30 19:40 | 45.35329 | 14.97585 | 37338 ft | 519 kts | 140° |
| 2026-04-30 19:41 | 45.29691 | 15.04028 | 37338 ft | 521 kts | 140° |
| 2026-04-30 19:41 | 45.24042 | 15.10466 | 37331 ft | 521 kts | 140° |
| 2026-04-30 19:42 | 45.18381 | 15.16901 | 37359 ft | 522 kts | 140° |
| 2026-04-30 19:42 | 45.12710 | 15.23331 | 37329 ft | 522 kts | 140° |
| 2026-04-30 19:43 | 45.07986 | 15.28674 | 37352 ft | 523 kts | 140° |
| 2026-04-30 19:44 | 44.99449 | 15.38300 | 37350 ft | 524 kts | 140° |
| 2026-04-30 19:44 | 44.93743 | 15.44713 | 37375 ft | 524 kts | 141° |
| 2026-04-30 19:45 | 44.88035 | 15.51111 | 37361 ft | 524 kts | 141° |
| 2026-04-30 19:45 | 44.82326 | 15.57495 | 37352 ft | 524 kts | 141° |
| 2026-04-30 19:46 | 44.76615 | 15.63863 | 37349 ft | 523 kts | 141° |
| 2026-04-30 19:46 | 44.70902 | 15.70218 | 37372 ft | 523 kts | 141° |
| 2026-04-30 19:47 | 44.65182 | 15.76563 | 37332 ft | 524 kts | 141° |
| 2026-04-30 19:47 | 44.59462 | 15.82892 | 37332 ft | 524 kts | 141° |
| 2026-04-30 19:48 | 44.53723 | 15.89225 | 37334 ft | 525 kts | 141° |
| 2026-04-30 19:48 | 44.47979 | 15.95549 | 37303 ft | 525 kts | 141° |
| 2026-04-30 19:49 | 44.42231 | 16.01861 | 37309 ft | 526 kts | 142° |
| 2026-04-30 19:49 | 44.33579 | 16.11329 | 37293 ft | 527 kts | 142° |
| 2026-04-30 19:50 | 44.27810 | 16.17622 | 37289 ft | 528 kts | 142° |
| 2026-04-30 19:50 | 44.22045 | 16.23896 | 37255 ft | 529 kts | 142° |
| 2026-04-30 19:51 | 44.16242 | 16.30194 | 37311 ft | 528 kts | 142° |
| 2026-04-30 19:51 | 44.10437 | 16.36479 | 37289 ft | 529 kts | 142° |
| 2026-04-30 19:52 | 44.04626 | 16.42753 | 37285 ft | 528 kts | 142° |
| 2026-04-30 19:52 | 43.98817 | 16.49010 | 37263 ft | 528 kts | 143° |
| 2026-04-30 19:53 | 43.93012 | 16.55246 | 37283 ft | 527 kts | 143° |
| 2026-04-30 19:53 | 43.87202 | 16.61472 | 37285 ft | 527 kts | 143° |
| 2026-04-30 19:54 | 43.81429 | 16.67644 | 37279 ft | 527 kts | 143° |
| 2026-04-30 19:54 | 43.75622 | 16.73836 | 37254 ft | 527 kts | 143° |
| 2026-04-30 19:55 | 43.69808 | 16.80018 | 37266 ft | 527 kts | 143° |
| 2026-04-30 19:55 | 43.63981 | 16.86200 | 37269 ft | 528 kts | 143° |
| 2026-04-30 19:56 | 43.58154 | 16.92367 | 37278 ft | 528 kts | 143° |
| 2026-04-30 19:56 | 43.52313 | 16.98532 | 37258 ft | 529 kts | 143° |
| 2026-04-30 19:57 | 43.46478 | 17.04675 | 37250 ft | 529 kts | 143° |
| 2026-04-30 19:57 | 43.40633 | 17.10815 | 37261 ft | 529 kts | 144° |
| 2026-04-30 19:58 | 43.34779 | 17.16949 | 37252 ft | 528 kts | 144° |
| 2026-04-30 19:58 | 43.28933 | 17.23060 | 37225 ft | 528 kts | 144° |
| 2026-04-30 19:59 | 43.23081 | 17.29156 | 37226 ft | 528 kts | 144° |
| 2026-04-30 20:00 | 43.14330 | 17.38251 | 37210 ft | 529 kts | 144° |
| 2026-04-30 20:00 | 43.08455 | 17.44339 | 37224 ft | 529 kts | 144° |
| 2026-04-30 20:01 | 42.99626 | 17.53459 | 37226 ft | 531 kts | 145° |
| 2026-04-30 20:01 | 42.93722 | 17.59539 | 37232 ft | 532 kts | 145° |
| 2026-04-30 20:02 | 42.84843 | 17.68654 | 37208 ft | 533 kts | 145° |
| 2026-04-30 20:03 | 42.75949 | 17.77751 | 37194 ft | 534 kts | 145° |
| 2026-04-30 20:03 | 42.70003 | 17.83814 | 37178 ft | 535 kts | 146° |
| 2026-04-30 20:04 | 42.64086 | 17.89832 | 37186 ft | 535 kts | 146° |
| 2026-04-30 20:05 | 42.55137 | 17.98907 | 37176 ft | 535 kts | 146° |
| 2026-04-30 20:05 | 42.46168 | 18.07969 | 37180 ft | 536 kts | 146° |
| 2026-04-30 20:06 | 42.40182 | 18.13998 | 37186 ft | 536 kts | 146° |
| 2026-04-30 20:06 | 42.34195 | 18.20014 | 37179 ft | 536 kts | 146° |
| 2026-04-30 20:07 | 42.28199 | 18.26024 | 37176 ft | 536 kts | 146° |
| 2026-04-30 20:08 | 42.19205 | 18.35013 | 37167 ft | 536 kts | 146° |
| 2026-04-30 20:08 | 42.13208 | 18.40991 | 37168 ft | 536 kts | 146° |
| 2026-04-30 20:09 | 42.07206 | 18.46964 | 37165 ft | 537 kts | 147° |
| 2026-04-30 20:09 | 41.98212 | 18.55955 | 37174 ft | 538 kts | 146° |
| 2026-04-30 20:10 | 41.89387 | 18.65188 | 37175 ft | 538 kts | 145° |
| 2026-04-30 20:11 | 41.80487 | 18.74423 | 37159 ft | 539 kts | 146° |
| 2026-04-30 20:11 | 41.74533 | 18.80572 | 37162 ft | 540 kts | 146° |
| 2026-04-30 20:12 | 41.65601 | 18.89766 | 37154 ft | 540 kts | 146° |
| 2026-04-30 20:13 | 41.59648 | 18.95876 | 37158 ft | 539 kts | 146° |
| 2026-04-30 20:13 | 41.53704 | 19.01963 | 37153 ft | 539 kts | 146° |
| 2026-04-30 20:14 | 41.47752 | 19.08042 | 37143 ft | 539 kts | 146° |
| 2026-04-30 20:14 | 41.41860 | 19.14235 | 37145 ft | 539 kts | 143° |
| 2026-04-30 20:15 | 41.36132 | 19.20675 | 37132 ft | 538 kts | 144° |
| 2026-04-30 20:15 | 41.30434 | 19.27020 | 37118 ft | 537 kts | 144° |
| 2026-04-30 20:16 | 41.24645 | 19.33400 | 37118 ft | 537 kts | 144° |
| 2026-04-30 20:16 | 41.18894 | 19.39715 | 37100 ft | 536 kts | 144° |
| 2026-04-30 20:17 | 41.13202 | 19.45951 | 37101 ft | 536 kts | 144° |
| 2026-04-30 20:17 | 41.07416 | 19.52276 | 37096 ft | 536 kts | 145° |
| 2026-04-30 20:18 | 41.01659 | 19.58553 | 37090 ft | 536 kts | 145° |
| 2026-04-30 20:18 | 40.95898 | 19.64821 | 37088 ft | 536 kts | 145° |
| 2026-04-30 20:19 | 40.90137 | 19.71075 | 37085 ft | 536 kts | 145° |
| 2026-04-30 20:19 | 40.84365 | 19.77325 | 37068 ft | 537 kts | 145° |
| 2026-04-30 20:20 | 40.78581 | 19.83574 | 37077 ft | 538 kts | 145° |
| 2026-04-30 20:20 | 40.72780 | 19.89827 | 37085 ft | 539 kts | 145° |
| 2026-04-30 20:21 | 40.66975 | 19.96070 | 37088 ft | 539 kts | 145° |
| 2026-04-30 20:21 | 40.61169 | 20.02300 | 37099 ft | 538 kts | 145° |
| 2026-04-30 20:22 | 40.55401 | 20.08472 | 37101 ft | 538 kts | 145° |
| 2026-04-30 20:22 | 40.49598 | 20.14672 | 37100 ft | 537 kts | 146° |
| 2026-04-30 20:23 | 40.43800 | 20.20850 | 37111 ft | 536 kts | 146° |
| 2026-04-30 20:23 | 40.38011 | 20.27001 | 37063 ft | 535 kts | 146° |
| 2026-04-30 20:24 | 40.32236 | 20.33129 | 37082 ft | 534 kts | 146° |
| 2026-04-30 20:24 | 40.26440 | 20.39261 | 37095 ft | 535 kts | 146° |
| 2026-04-30 20:25 | 40.17740 | 20.48444 | 37108 ft | 536 kts | 146° |
| 2026-04-30 20:26 | 40.09002 | 20.57576 | 37094 ft | 534 kts | 149° |
| 2026-04-30 20:26 | 39.99463 | 20.64707 | 37076 ft | 524 kts | 159° |
| 2026-04-30 20:27 | 39.86532 | 20.73332 | 37037 ft | 524 kts | 158° |
| 2026-04-30 20:28 | 39.73531 | 20.81987 | 37081 ft | 526 kts | 158° |
| 2026-04-30 20:30 | 39.57230 | 20.92783 | 37070 ft | 526 kts | 158° |
| 2026-04-30 20:31 | 39.38746 | 21.04958 | 37019 ft | 526 kts | 158° |
| 2026-04-30 20:32 | 39.22411 | 21.15651 | 37080 ft | 527 kts | 158° |
| 2026-04-30 20:33 | 39.12604 | 21.22046 | 37063 ft | 526 kts | 158° |
| 2026-04-30 20:34 | 39.02796 | 21.28422 | 37062 ft | 526 kts | 158° |
| 2026-04-30 20:35 | 38.93023 | 21.34756 | 37055 ft | 525 kts | 158° |
| 2026-04-30 20:35 | 38.83225 | 21.41086 | 37064 ft | 526 kts | 158° |
| 2026-04-30 20:36 | 38.76680 | 21.45303 | 37066 ft | 526 kts | 158° |
| 2026-04-30 20:37 | 38.66884 | 21.51652 | 37057 ft | 527 kts | 157° |
| 2026-04-30 20:37 | 38.60380 | 21.55990 | 37056 ft | 526 kts | 157° |
| 2026-04-30 20:38 | 38.53886 | 21.60303 | 37052 ft | 526 kts | 157° |
| 2026-04-30 20:38 | 38.47381 | 21.64600 | 37052 ft | 526 kts | 157° |
| 2026-04-30 20:39 | 38.37611 | 21.71035 | 37048 ft | 526 kts | 157° |
| 2026-04-30 20:40 | 38.27883 | 21.77422 | 37049 ft | 527 kts | 157° |
| 2026-04-30 20:40 | 38.21358 | 21.81695 | 37063 ft | 527 kts | 157° |
| 2026-04-30 20:41 | 38.11558 | 21.88097 | 37058 ft | 528 kts | 157° |
| 2026-04-30 20:41 | 38.05029 | 21.92353 | 37054 ft | 527 kts | 157° |
| 2026-04-30 20:42 | 37.98493 | 21.96603 | 37068 ft | 528 kts | 157° |
| 2026-04-30 20:43 | 37.88699 | 22.02959 | 37060 ft | 527 kts | 157° |
| 2026-04-30 20:43 | 37.82221 | 22.07153 | 37048 ft | 527 kts | 157° |
| 2026-04-30 20:44 | 37.72416 | 22.13476 | 37068 ft | 528 kts | 157° |
| 2026-04-30 20:45 | 37.59324 | 22.21899 | 37041 ft | 528 kts | 157° |
| 2026-04-30 20:45 | 37.52791 | 22.26097 | 37042 ft | 527 kts | 157° |
| 2026-04-30 20:46 | 37.39676 | 22.34475 | 37025 ft | 530 kts | 157° |
| 2026-04-30 20:47 | 37.29790 | 22.40747 | 37061 ft | 531 kts | 157° |
| 2026-04-30 20:48 | 37.19906 | 22.47001 | 37064 ft | 530 kts | 157° |
| 2026-04-30 20:48 | 37.13347 | 22.51142 | 37039 ft | 530 kts | 158° |
| 2026-04-30 20:49 | 37.06763 | 22.55289 | 37033 ft | 529 kts | 158° |
| 2026-04-30 20:50 | 36.96893 | 22.61492 | 36995 ft | 529 kts | 158° |
| 2026-04-30 20:50 | 36.90303 | 22.65623 | 37000 ft | 529 kts | 158° |
| 2026-04-30 20:51 | 36.83717 | 22.69744 | 36992 ft | 529 kts | 158° |
| 2026-04-30 20:51 | 36.73818 | 22.75923 | 36990 ft | 531 kts | 158° |
| 2026-04-30 20:52 | 36.67208 | 22.80039 | 37014 ft | 531 kts | 158° |
| 2026-04-30 20:53 | 36.57343 | 22.86167 | 36989 ft | 531 kts | 158° |
| 2026-04-30 20:53 | 36.50732 | 22.90264 | 37001 ft | 531 kts | 158° |
| 2026-04-30 20:54 | 36.40807 | 22.96400 | 37015 ft | 531 kts | 158° |
| 2026-04-30 20:55 | 36.30872 | 23.02525 | 37011 ft | 532 kts | 158° |
| 2026-04-30 20:55 | 36.24239 | 23.06604 | 37014 ft | 532 kts | 158° |
| 2026-04-30 20:56 | 36.14281 | 23.12713 | 37031 ft | 532 kts | 158° |
| 2026-04-30 20:57 | 36.04327 | 23.18805 | 37012 ft | 531 kts | 158° |
| 2026-04-30 20:57 | 35.97703 | 23.22849 | 37009 ft | 531 kts | 158° |
| 2026-04-30 20:58 | 35.87769 | 23.28900 | 37000 ft | 530 kts | 158° |
| 2026-04-30 20:58 | 35.81149 | 23.32923 | 36985 ft | 531 kts | 158° |
| 2026-04-30 20:59 | 35.71204 | 23.38953 | 37004 ft | 531 kts | 158° |
| 2026-04-30 21:00 | 35.57969 | 23.46951 | 37020 ft | 532 kts | 159° |
| 2026-04-30 21:01 | 35.48006 | 23.52953 | 37026 ft | 531 kts | 159° |
| 2026-04-30 21:02 | 35.38069 | 23.58922 | 37029 ft | 530 kts | 159° |
| 2026-04-30 21:02 | 35.31444 | 23.62892 | 37001 ft | 529 kts | 159° |
| 2026-04-30 21:03 | 35.24838 | 23.66843 | 37007 ft | 528 kts | 159° |
| 2026-04-30 21:03 | 35.18253 | 23.70874 | 37011 ft | 530 kts | 157° |
| 2026-04-30 21:04 | 35.11717 | 23.75080 | 37020 ft | 531 kts | 157° |
| 2026-04-30 21:04 | 35.01939 | 23.81315 | 37027 ft | 530 kts | 158° |
| 2026-04-30 21:05 | 34.95391 | 23.85459 | 37024 ft | 530 kts | 158° |
| 2026-04-30 21:05 | 34.88848 | 23.89592 | 37024 ft | 530 kts | 158° |
| 2026-04-30 21:06 | 34.82295 | 23.93724 | 37022 ft | 530 kts | 158° |
| 2026-04-30 21:06 | 34.75743 | 23.97850 | 37024 ft | 529 kts | 158° |
| 2026-04-30 21:07 | 34.69195 | 24.01964 | 37023 ft | 529 kts | 158° |
| 2026-04-30 21:07 | 34.62742 | 24.06011 | 37025 ft | 529 kts | 158° |
| 2026-04-30 21:08 | 34.56221 | 24.10095 | 37041 ft | 528 kts | 158° |
| 2026-04-30 21:08 | 34.49686 | 24.14180 | 37016 ft | 527 kts | 159° |
| 2026-04-30 21:09 | 34.43165 | 24.18248 | 37025 ft | 527 kts | 159° |
| 2026-04-30 21:09 | 34.36698 | 24.22275 | 37026 ft | 526 kts | 159° |
| 2026-04-30 21:10 | 34.30180 | 24.26328 | 37023 ft | 526 kts | 159° |
| 2026-04-30 21:10 | 34.23656 | 24.30377 | 37023 ft | 526 kts | 159° |
| 2026-04-30 21:11 | 34.17151 | 24.34407 | 37016 ft | 526 kts | 159° |
| 2026-04-30 21:11 | 34.10632 | 24.38438 | 37019 ft | 526 kts | 159° |
| 2026-04-30 21:12 | 34.04104 | 24.42469 | 37028 ft | 526 kts | 159° |
| 2026-04-30 21:12 | 33.97899 | 24.47296 | 37046 ft | 537 kts | 146° |
| 2026-04-30 21:13 | 33.92280 | 24.53295 | 37020 ft | 539 kts | 143° |
| 2026-04-30 21:13 | 33.86683 | 24.59329 | 37023 ft | 540 kts | 143° |
| 2026-04-30 21:14 | 33.81086 | 24.65337 | 37023 ft | 540 kts | 143° |
| 2026-04-30 21:14 | 33.75515 | 24.71304 | 37021 ft | 540 kts | 143° |
| 2026-04-30 21:15 | 33.69900 | 24.77307 | 37022 ft | 540 kts | 143° |
| 2026-04-30 21:15 | 33.64285 | 24.83300 | 37023 ft | 540 kts | 143° |
| 2026-04-30 21:16 | 33.58670 | 24.89281 | 37020 ft | 539 kts | 143° |
| 2026-04-30 21:16 | 33.53053 | 24.95253 | 37020 ft | 539 kts | 143° |
| 2026-04-30 21:17 | 33.47435 | 25.01216 | 37017 ft | 539 kts | 143° |
| 2026-04-30 21:17 | 33.41829 | 25.07156 | 37030 ft | 538 kts | 143° |
| 2026-04-30 21:18 | 33.36216 | 25.13092 | 37027 ft | 537 kts | 143° |
| 2026-04-30 21:18 | 33.31562 | 25.18006 | 37022 ft | 537 kts | 143° |
| 2026-04-30 21:19 | 33.25965 | 25.23906 | 37019 ft | 536 kts | 143° |
| 2026-04-30 21:19 | 33.20363 | 25.29800 | 37015 ft | 536 kts | 143° |
| 2026-04-30 21:20 | 33.14769 | 25.35676 | 37024 ft | 535 kts | 143° |
| 2026-04-30 21:20 | 33.09179 | 25.41537 | 37023 ft | 535 kts | 143° |
| 2026-04-30 21:21 | 33.03626 | 25.47349 | 37024 ft | 535 kts | 143° |
| 2026-04-30 21:22 | 32.95240 | 25.56107 | 37016 ft | 534 kts | 143° |
| 2026-04-30 21:23 | 32.84052 | 25.67756 | 37011 ft | 535 kts | 143° |
| 2026-04-30 21:23 | 32.75641 | 25.76487 | 37012 ft | 535 kts | 143° |
| 2026-04-30 21:24 | 32.70024 | 25.82305 | 36989 ft | 535 kts | 143° |
| 2026-04-30 21:24 | 32.64416 | 25.88104 | 37022 ft | 535 kts | 143° |
| 2026-04-30 21:25 | 32.56056 | 25.96729 | 37022 ft | 535 kts | 143° |
| 2026-04-30 21:26 | 32.47638 | 26.05392 | 37029 ft | 534 kts | 143° |
| 2026-04-30 21:27 | 32.39275 | 26.13976 | 37028 ft | 534 kts | 143° |
| 2026-04-30 21:27 | 32.33662 | 26.19726 | 37024 ft | 533 kts | 144° |
| 2026-04-30 21:28 | 32.25242 | 26.28331 | 37028 ft | 533 kts | 144° |
| 2026-04-30 21:29 | 32.16809 | 26.36929 | 37026 ft | 533 kts | 144° |
| 2026-04-30 21:30 | 32.02758 | 26.51206 | 37025 ft | 533 kts | 144° |
| 2026-04-30 21:31 | 31.88701 | 26.65429 | 37031 ft | 533 kts | 144° |
| 2026-04-30 21:32 | 31.80297 | 26.73903 | 37037 ft | 533 kts | 144° |
| 2026-04-30 21:32 | 31.74666 | 26.79570 | 37015 ft | 532 kts | 144° |
| 2026-04-30 21:33 | 31.66192 | 26.88080 | 37039 ft | 532 kts | 144° |
| 2026-04-30 21:34 | 31.60602 | 26.93682 | 37050 ft | 532 kts | 144° |
| 2026-04-30 21:34 | 31.52163 | 27.02122 | 37053 ft | 532 kts | 144° |
| 2026-04-30 21:35 | 31.46536 | 27.07737 | 37057 ft | 532 kts | 144° |
| 2026-04-30 21:35 | 31.40898 | 27.13357 | 37080 ft | 531 kts | 144° |
| 2026-04-30 21:36 | 31.35268 | 27.18963 | 37038 ft | 532 kts | 144° |
| 2026-04-30 21:37 | 31.28050 | 27.28993 | 38147 ft | 542 kts | 127° |
| 2026-04-30 21:37 | 31.25944 | 27.32657 | 38642 ft | 540 kts | 128° |
| 2026-04-30 21:37 | 31.23836 | 27.36302 | 38970 ft | 541 kts | 128° |
| 2026-04-30 21:37 | 31.21717 | 27.39953 | 39047 ft | 541 kts | 128° |
| 2026-04-30 21:38 | 31.17524 | 27.47174 | 39056 ft | 536 kts | 128° |
| 2026-04-30 21:38 | 31.13345 | 27.54352 | 39055 ft | 539 kts | 128° |
| 2026-04-30 21:39 | 31.09082 | 27.61541 | 39058 ft | 538 kts | 129° |
| 2026-04-30 21:39 | 31.04792 | 27.68701 | 39033 ft | 540 kts | 128° |
| 2026-04-30 21:40 | 31.00471 | 27.75920 | 39081 ft | 545 kts | 128° |
| 2026-04-30 21:40 | 30.96119 | 27.83185 | 39104 ft | 547 kts | 128° |
| 2026-04-30 21:41 | 30.91779 | 27.90423 | 39050 ft | 540 kts | 128° |
| 2026-04-30 21:41 | 30.87484 | 27.97568 | 39052 ft | 540 kts | 128° |
| 2026-04-30 21:42 | 30.83162 | 28.04742 | 39051 ft | 540 kts | 128° |
| 2026-04-30 21:42 | 30.78842 | 28.11901 | 39052 ft | 540 kts | 129° |
| 2026-04-30 21:43 | 30.74522 | 28.19049 | 39047 ft | 540 kts | 129° |
| 2026-04-30 21:43 | 30.70197 | 28.26190 | 39043 ft | 540 kts | 129° |
| 2026-04-30 21:44 | 30.65902 | 28.33272 | 39038 ft | 540 kts | 129° |
| 2026-04-30 21:44 | 30.61549 | 28.40433 | 39035 ft | 539 kts | 129° |
| 2026-04-30 21:45 | 30.57240 | 28.47512 | 39035 ft | 540 kts | 129° |
| 2026-04-30 21:45 | 30.52902 | 28.54625 | 39032 ft | 540 kts | 129° |
| 2026-04-30 21:46 | 30.48559 | 28.61733 | 39034 ft | 540 kts | 129° |
| 2026-04-30 21:46 | 30.44208 | 28.68841 | 39028 ft | 541 kts | 129° |
| 2026-04-30 21:47 | 30.39848 | 28.75952 | 39032 ft | 541 kts | 129° |
| 2026-04-30 21:47 | 30.35488 | 28.83051 | 39031 ft | 541 kts | 129° |
| 2026-04-30 21:48 | 30.31121 | 28.90147 | 39036 ft | 541 kts | 129° |
| 2026-04-30 21:48 | 30.26746 | 28.97245 | 39035 ft | 541 kts | 129° |
| 2026-04-30 21:49 | 30.22373 | 29.04327 | 39012 ft | 541 kts | 129° |
| 2026-04-30 21:49 | 30.18001 | 29.11400 | 39030 ft | 541 kts | 129° |
| 2026-04-30 21:50 | 30.13667 | 29.18424 | 39030 ft | 541 kts | 129° |
| 2026-04-30 21:50 | 30.09321 | 29.25539 | 39028 ft | 541 kts | 129° |
| 2026-04-30 21:51 | 30.05076 | 29.32605 | 39029 ft | 542 kts | 128° |
| 2026-04-30 21:51 | 30.00770 | 29.39742 | 39033 ft | 542 kts | 129° |
| 2026-04-30 21:52 | 29.96455 | 29.46864 | 39035 ft | 542 kts | 129° |
| 2026-04-30 21:52 | 29.92134 | 29.53981 | 39033 ft | 542 kts | 129° |
| 2026-04-30 21:53 | 29.87810 | 29.61092 | 39036 ft | 542 kts | 129° |
| 2026-04-30 21:53 | 29.83479 | 29.68202 | 39038 ft | 542 kts | 129° |
| 2026-04-30 21:54 | 29.79142 | 29.75309 | 39035 ft | 542 kts | 129° |
| 2026-04-30 21:54 | 29.74800 | 29.82412 | 39036 ft | 542 kts | 129° |
| 2026-04-30 21:55 | 29.70486 | 29.89458 | 39035 ft | 542 kts | 129° |
| 2026-04-30 21:55 | 29.66140 | 29.96542 | 39035 ft | 542 kts | 129° |
| 2026-04-30 21:56 | 29.61791 | 30.03620 | 39035 ft | 542 kts | 129° |
| 2026-04-30 21:56 | 29.57436 | 30.10695 | 39035 ft | 542 kts | 129° |
| 2026-04-30 21:57 | 29.53072 | 30.17772 | 39033 ft | 542 kts | 129° |
| 2026-04-30 21:57 | 29.48715 | 30.24827 | 39033 ft | 542 kts | 129° |
| 2026-04-30 21:58 | 29.44351 | 30.31881 | 39027 ft | 542 kts | 129° |
| 2026-04-30 21:58 | 29.39926 | 30.38870 | 39005 ft | 539 kts | 134° |
| 2026-04-30 21:59 | 29.34875 | 30.45134 | 39021 ft | 534 kts | 139° |
| 2026-04-30 22:00 | 29.27186 | 30.54296 | 39027 ft | 534 kts | 139° |
| 2026-04-30 22:00 | 29.19464 | 30.63490 | 39030 ft | 534 kts | 139° |
| 2026-04-30 22:01 | 29.14297 | 30.69626 | 39028 ft | 535 kts | 139° |
| 2026-04-30 22:01 | 29.09136 | 30.75746 | 39027 ft | 535 kts | 139° |
| 2026-04-30 22:02 | 29.03971 | 30.81863 | 39008 ft | 534 kts | 139° |
| 2026-04-30 22:02 | 28.98801 | 30.87976 | 39025 ft | 534 kts | 139° |
| 2026-04-30 22:03 | 28.93658 | 30.94047 | 39028 ft | 534 kts | 139° |
| 2026-04-30 22:03 | 28.88483 | 31.00147 | 39021 ft | 535 kts | 139° |
| 2026-04-30 22:04 | 28.83301 | 31.06245 | 39027 ft | 535 kts | 139° |
| 2026-04-30 22:05 | 28.75504 | 31.15405 | 39029 ft | 536 kts | 139° |
| 2026-04-30 22:05 | 28.70308 | 31.21498 | 39024 ft | 536 kts | 139° |
| 2026-04-30 22:06 | 28.65238 | 31.27737 | 39006 ft | 538 kts | 136° |
| 2026-04-30 22:06 | 28.58608 | 31.36197 | 39025 ft | 538 kts | 136° |
| 2026-04-30 22:07 | 28.53582 | 31.42531 | 39023 ft | 539 kts | 137° |
| 2026-04-30 22:07 | 28.48550 | 31.48847 | 39032 ft | 539 kts | 137° |
| 2026-04-30 22:08 | 28.43504 | 31.55168 | 39035 ft | 539 kts | 136° |
| 2026-04-30 22:08 | 28.38462 | 31.61475 | 39036 ft | 539 kts | 137° |
| 2026-04-30 22:09 | 28.33417 | 31.67778 | 39041 ft | 539 kts | 137° |
| 2026-04-30 22:09 | 28.28384 | 31.74056 | 39038 ft | 537 kts | 136° |
| 2026-04-30 22:10 | 28.23357 | 31.80317 | 39036 ft | 536 kts | 137° |
| 2026-04-30 22:10 | 28.18341 | 31.86553 | 39039 ft | 535 kts | 137° |
| 2026-04-30 22:11 | 28.10818 | 31.95890 | 39037 ft | 534 kts | 137° |
| 2026-04-30 22:12 | 28.05811 | 32.02115 | 39033 ft | 535 kts | 135° |
| 2026-04-30 22:12 | 28.01489 | 32.08960 | 39030 ft | 541 kts | 123° |
| 2026-04-30 22:13 | 27.97896 | 32.16460 | 39028 ft | 542 kts | 121° |
| 2026-04-30 22:13 | 27.94293 | 32.23944 | 39015 ft | 542 kts | 121° |
| 2026-04-30 22:14 | 27.90679 | 32.31424 | 39005 ft | 542 kts | 121° |
| 2026-04-30 22:14 | 27.87071 | 32.38882 | 39011 ft | 540 kts | 122° |
| 2026-04-30 22:15 | 27.83470 | 32.46313 | 38993 ft | 539 kts | 122° |
| 2026-04-30 22:15 | 27.79869 | 32.53730 | 38984 ft | 538 kts | 122° |
| 2026-04-30 22:16 | 27.76274 | 32.61123 | 38977 ft | 537 kts | 122° |